Time;durP1;ratioP1;P1;durP2;ratioP2;P2;SDS_P1;SDS_P2;PMS_P1;PMS_P2;Temp;Humidity;BMP_temperature;BMP_pressure;BME280_temperature;BME280_humidity;BME280_pressure;Samples;Min_cycle;Max_cycle;Signal;HPM_P1;HPM_P2
2023/03/29 00:01:59;;;;;;;;;;;;;;;11.69;94.74;100906.50;7355889;19;19950;-63
2023/03/29 00:04:26;;;;;;;;;;;;;;;11.72;94.97;100903.56;7362340;19;20274;-64
2023/03/29 00:06:54;;;;;;;;;;;;;;;11.71;94.47;100901.06;7359059;19;19931;-64
2023/03/29 00:09:21;;;;;;;;;;;;;;;11.69;94.60;100892.47;7361676;19;19922;-64
2023/03/29 00:11:48;;;;;;;;;;;;;;;11.71;94.96;100896.63;7358828;19;19931;-64
2023/03/29 00:14:14;;;;;;;;;;;;;;;11.70;95.27;100892.34;7360977;19;19923;-64
2023/03/29 00:16:43;;;;;;;;;;;;;;;11.71;95.04;100896.63;7356162;19;19939;-63
2023/03/29 00:19:10;;;;;;;;;;;;;;;11.70;95.26;100891.50;7356734;19;19918;-64
2023/03/29 00:21:37;;;;;;;;;;;;;;;11.68;95.30;100896.97;7355908;19;19923;-63
2023/03/29 00:24:04;;;;;;;;;;;;;;;11.69;95.29;100895.13;7358069;19;19922;-65
2023/03/29 00:26:31;;;;;;;;;;;;;;;11.69;95.55;100901.22;7358998;19;19919;-63
2023/03/29 00:28:57;;;;;;;;;;;;;;;11.66;95.56;100901.53;7360999;19;19919;-63
2023/03/29 00:31:25;;;;;;;;;;;;;;;11.66;95.80;100896.28;7354748;19;20119;-63
2023/03/29 00:33:52;;;;;;;;;;;;;;;11.69;96.47;100898.59;7355974;19;19922;-64
2023/03/29 00:36:20;;;;;;;;;;;;;;;11.70;96.83;100897.59;7355913;19;19919;-64
2023/03/29 00:38:47;;;;;;;;;;;;;;;11.70;96.77;100894.97;7358114;19;19975;-64
2023/03/29 00:41:14;;;;;;;;;;;;;;;11.70;96.49;100888.88;7357062;19;19914;-64
2023/03/29 00:44:11;;;;;;;;;;;;;;;11.70;96.84;100883.59;7356741;19;20304;-64
2023/03/29 00:46:37;;;;;;;;;;;;;;;11.72;97.25;100897.47;7351177;19;20564;-64
2023/03/29 00:49:08;;;;;;;;;;;;;;;11.73;97.82;100896.50;7358507;19;19953;-63
2023/03/29 00:51:37;;;;;;;;;;;;;;;11.69;97.58;100890.69;7356153;19;19923;-64
2023/03/29 00:54:09;;;;;;;;;;;;;;;11.71;98.42;100885.25;7355622;19;20485;-63
2023/03/29 00:56:38;;;;;;;;;;;;;;;11.71;98.38;100882.63;7358853;19;19915;-64
2023/03/29 00:59:12;;;;;;;;;;;;;;;11.72;99.15;100882.47;7356724;19;19930;-63
2023/03/29 01:01:44;;;;;;;;;;;;;;;11.73;99.31;100881.53;7355733;19;19918;-62
2023/03/29 01:04:18;;;;;;;;;;;;;;;11.73;99.17;100878.06;7359392;19;19922;-63
2023/03/29 01:07:06;;;;;;;;;;;;;;;11.76;99.49;100872.47;7355435;19;20565;-62
2023/03/29 01:09:36;;;;;;;;;;;;;;;11.79;99.61;100877.41;7359233;19;21546;-64
2023/03/29 01:12:07;;;;;;;;;;;;;;;11.79;99.80;100858.94;7359592;19;19948;-65
2023/03/29 01:14:38;;;;;;;;;;;;;;;11.79;99.35;100867.69;7358022;19;19922;-64
2023/03/29 01:17:05;;;;;;;;;;;;;;;11.76;99.55;100873.28;7353169;19;19919;-64
2023/03/29 01:19:36;;;;;;;;;;;;;;;11.71;99.16;100872.91;7355205;19;19934;-65
2023/03/29 01:22:29;;;;;;;;;;;;;;;11.75;99.51;100870.78;7357850;19;19919;-64
2023/03/29 01:25:02;;;;;;;;;;;;;;;11.77;99.58;100860.94;7356736;19;19930;-66
2023/03/29 01:27:34;;;;;;;;;;;;;;;11.80;99.92;100861.44;7359671;19;19922;-63
2023/03/29 01:30:04;;;;;;;;;;;;;;;11.81;99.90;100855.19;7358153;19;19947;-65
2023/03/29 01:32:36;;;;;;;;;;;;;;;11.81;99.68;100875.44;7356400;19;19940;-64
2023/03/29 01:35:09;;;;;;;;;;;;;;;11.84;99.77;100864.56;7355684;19;19965;-65
2023/03/29 01:37:44;;;;;;;;;;;;;;;11.85;100.00;100861.78;7355914;19;19923;-65
2023/03/29 01:40:11;;;;;;;;;;;;;;;11.86;100.00;100859.97;7355028;19;21575;-64
2023/03/29 01:42:45;;;;;;;;;;;;;;;11.88;100.00;100848.28;7358333;19;21254;-65
2023/03/29 01:45:18;;;;;;;;;;;;;;;11.89;100.00;100844.66;7354611;19;19918;-64
2023/03/29 01:47:59;;;;;;;;;;;;;;;11.91;99.92;100834.78;7355779;19;19926;-65
2023/03/29 01:50:35;;;;;;;;;;;;;;;11.93;99.61;100842.53;7357742;19;20004;-63
2023/03/29 01:53:05;;;;;;;;;;;;;;;11.92;99.46;100840.88;7358333;19;20399;-65
2023/03/29 01:55:37;;;;;;;;;;;;;;;11.92;99.53;100835.59;7360945;19;20352;-64
2023/03/29 01:58:06;;;;;;;;;;;;;;;11.94;99.48;100828.34;7366334;19;19934;-64
2023/03/29 02:00:35;;;;;;;;;;;;;;;11.96;99.94;100826.38;7358500;19;19943;-63
2023/03/29 02:03:05;;;;;;;;;;;;;;;11.96;99.97;100816.66;7365070;19;19935;-64
2023/03/29 02:05:32;;;;;;;;;;;;;;;11.97;100.00;100820.94;7361753;19;20351;-64
2023/03/29 02:08:00;;;;;;;;;;;;;;;11.98;99.98;100812.06;7362741;19;19923;-64
2023/03/29 02:10:27;;;;;;;;;;;;;;;11.99;100.00;100813.69;7362046;19;20262;-63
2023/03/29 02:12:54;;;;;;;;;;;;;;;11.98;100.00;100812.06;7361773;19;21203;-64
2023/03/29 02:15:22;;;;;;;;;;;;;;;11.98;99.97;100817.34;7364234;19;20904;-63
2023/03/29 02:17:49;;;;;;;;;;;;;;;11.94;99.98;100812.50;7357499;19;19918;-68
2023/03/29 02:20:22;;;;;;;;;;;;;;;11.94;100.00;100813.34;7362503;19;20014;-63
2023/03/29 02:23:13;;;;;;;;;;;;;;;11.97;100.00;100826.22;7364175;19;20043;-64
2023/03/29 02:25:41;;;;;;;;;;;;;;;11.99;100.00;100828.69;7361195;19;19923;-65
2023/03/29 02:28:08;;;;;;;;;;;;;;;11.98;100.00;100837.59;7363719;19;20379;-64
2023/03/29 02:30:47;;;;;;;;;;;;;;;11.96;100.00;100834.28;7356557;19;20771;-64
2023/03/29 02:33:16;;;;;;;;;;;;;;;11.98;100.00;100832.31;7356631;19;19990;-63
2023/03/29 02:35:47;;;;;;;;;;;;;;;11.98;100.00;100829.69;7362445;19;19915;-64
2023/03/29 02:38:15;;;;;;;;;;;;;;;11.96;100.00;100823.75;7363234;19;20511;-66
2023/03/29 02:40:42;;;;;;;;;;;;;;;11.97;100.00;100820.13;7356988;19;19926;-63
2023/03/29 02:43:11;;;;;;;;;;;;;;;11.99;99.90;100812.84;7364062;19;20022;-63
2023/03/29 02:45:38;;;;;;;;;;;;;;;12.00;100.00;100809.25;7357517;19;20218;-66
2023/03/29 02:48:07;;;;;;;;;;;;;;;11.96;99.99;100813.19;7363322;19;19963;-63
2023/03/29 02:50:36;;;;;;;;;;;;;;;11.92;99.83;100812.69;7361612;19;19936;-64
2023/03/29 02:53:06;;;;;;;;;;;;;;;11.91;99.78;100811.03;7362345;19;19947;-63
2023/03/29 02:55:35;;;;;;;;;;;;;;;11.92;100.00;100811.88;7355785;19;19926;-64
2023/03/29 02:58:06;;;;;;;;;;;;;;;11.90;100.00;100809.38;7363620;19;19918;-64
2023/03/29 03:00:39;;;;;;;;;;;;;;;11.89;100.00;100806.91;7359453;19;19919;-63
2023/03/29 03:03:06;;;;;;;;;;;;;;;11.87;100.00;100807.09;7360091;19;19923;-63
2023/03/29 03:05:34;;;;;;;;;;;;;;;11.91;100.00;100807.56;7356852;19;19921;-63
2023/03/29 03:08:01;;;;;;;;;;;;;;;11.92;100.00;100804.78;7362341;19;19923;-64
2023/03/29 03:10:28;;;;;;;;;;;;;;;11.95;100.00;100814.16;7360726;19;20385;-64
2023/03/29 03:12:55;;;;;;;;;;;;;;;11.97;100.00;100809.56;7360988;19;20752;-64
2023/03/29 03:15:22;;;;;;;;;;;;;;;12.00;100.00;100811.88;7361205;19;19918;-65
2023/03/29 03:17:48;;;;;;;;;;;;;;;12.02;100.00;100809.91;7357190;19;20478;-64
2023/03/29 03:20:15;;;;;;;;;;;;;;;12.04;100.00;100809.75;7361579;19;20345;-64
2023/03/29 03:22:44;;;;;;;;;;;;;;;12.04;100.00;100796.56;7360990;19;21510;-65
2023/03/29 03:25:11;;;;;;;;;;;;;;;12.02;100.00;100795.91;7362186;19;19963;-67
2023/03/29 03:27:38;;;;;;;;;;;;;;;11.99;100.00;100797.88;7360344;19;19930;-65
2023/03/29 03:30:05;;;;;;;;;;;;;;;11.96;99.95;100797.38;7363602;19;19944;-65
2023/03/29 03:32:33;;;;;;;;;;;;;;;11.95;100.00;100791.28;7359288;19;20006;-65
2023/03/29 03:34:59;;;;;;;;;;;;;;;11.97;100.00;100791.13;7363551;19;19986;-64
2023/03/29 03:37:27;;;;;;;;;;;;;;;12.00;100.00;100788.13;7363469;19;20809;-64
2023/03/29 03:39:54;;;;;;;;;;;;;;;12.02;100.00;100788.00;7361582;19;19926;-63
2023/03/29 03:42:20;;;;;;;;;;;;;;;12.01;100.00;100779.25;7358432;19;19919;-65
2023/03/29 03:44:48;;;;;;;;;;;;;;;12.03;100.00;100772.00;7362216;19;19925;-64
2023/03/29 03:47:15;;;;;;;;;;;;;;;12.03;99.80;100781.72;7354345;19;19923;-64
2023/03/29 03:49:42;;;;;;;;;;;;;;;12.03;100.00;100776.47;7361045;19;19919;-63
2023/03/29 03:52:09;;;;;;;;;;;;;;;12.02;99.77;100778.28;7357279;19;19923;-64
2023/03/29 03:54:35;;;;;;;;;;;;;;;12.02;99.95;100773.00;7361374;19;19918;-63
2023/03/29 03:57:02;;;;;;;;;;;;;;;12.02;100.00;100772.16;7360629;19;20467;-64
2023/03/29 03:59:29;;;;;;;;;;;;;;;12.02;100.00;100773.00;7361473;19;20411;-63
2023/03/29 04:01:57;;;;;;;;;;;;;;;12.02;100.00;100777.44;7355462;19;20704;-64
2023/03/29 04:04:24;;;;;;;;;;;;;;;12.03;100.00;100779.09;7358438;19;19923;-64
2023/03/29 04:06:51;;;;;;;;;;;;;;;12.01;100.00;100776.59;7358687;19;20748;-64
2023/03/29 04:09:18;;;;;;;;;;;;;;;11.99;100.00;100776.75;7360490;19;19918;-65
2023/03/29 04:11:45;;;;;;;;;;;;;;;12.00;100.00;100774.94;7357478;19;19915;-63
2023/03/29 04:14:12;;;;;;;;;;;;;;;12.00;100.00;100774.94;7361894;19;19922;-65
2023/03/29 04:16:39;;;;;;;;;;;;;;;11.99;100.00;100773.31;7354960;19;19926;-67
2023/03/29 04:19:06;;;;;;;;;;;;;;;12.00;100.00;100772.31;7357650;19;19922;-64
2023/03/29 04:21:33;;;;;;;;;;;;;;;12.02;100.00;100772.16;7359487;19;19923;-64
2023/03/29 04:24:00;;;;;;;;;;;;;;;12.03;100.00;100768.53;7359769;19;19915;-64
2023/03/29 04:26:26;;;;;;;;;;;;;;;12.03;99.88;100765.91;7355870;19;20209;-64
2023/03/29 04:28:53;;;;;;;;;;;;;;;12.06;100.00;100757.66;7359993;19;19918;-64
2023/03/29 04:31:20;;;;;;;;;;;;;;;12.11;100.00;100752.72;7356721;19;19922;-65
2023/03/29 04:33:47;;;;;;;;;;;;;;;12.12;100.00;100759.66;7356667;19;19927;-63
2023/03/29 04:36:15;;;;;;;;;;;;;;;12.13;100.00;100748.94;7356599;19;20100;-63
2023/03/29 04:38:42;;;;;;;;;;;;;;;12.14;99.92;100755.84;7359771;19;19950;-64
2023/03/29 04:41:14;;;;;;;;;;;;;;;12.15;100.00;100751.38;7355543;19;19988;-63
2023/03/29 04:43:45;;;;;;;;;;;;;;;12.15;100.00;100752.22;7359739;19;20482;-66
2023/03/29 04:46:13;;;;;;;;;;;;;;;12.13;99.87;100742.84;7355477;19;20285;-68
2023/03/29 04:48:40;;;;;;;;;;;;;;;12.12;99.67;100749.91;7357899;19;19923;-64
2023/03/29 04:51:07;;;;;;;;;;;;;;;12.14;99.91;100741.84;7356658;19;19919;-64
2023/03/29 04:53:34;;;;;;;;;;;;;;;12.13;100.00;100743.66;7355841;19;19926;-64
2023/03/29 04:56:01;;;;;;;;;;;;;;;12.14;99.79;100747.13;7356695;19;19922;-66
2023/03/29 04:58:28;;;;;;;;;;;;;;;12.13;99.80;100746.31;7358861;19;19919;-64
2023/03/29 05:00:57;;;;;;;;;;;;;;;12.12;99.80;100744.66;7352629;19;19929;-64
2023/03/29 05:03:25;;;;;;;;;;;;;;;12.11;99.62;100753.53;7356213;19;20283;-64
2023/03/29 05:05:52;;;;;;;;;;;;;;;12.12;99.69;100762.28;7354064;19;20332;-64
2023/03/29 05:08:19;;;;;;;;;;;;;;;12.12;99.97;100752.56;7355964;19;19945;-65
2023/03/29 05:10:48;;;;;;;;;;;;;;;12.14;100.00;100747.13;7358283;19;19922;-64
2023/03/29 05:13:15;;;;;;;;;;;;;;;12.13;100.00;100732.28;7356426;19;19976;-66
2023/03/29 05:15:42;;;;;;;;;;;;;;;12.14;99.34;100736.56;7355541;19;19921;-64
2023/03/29 05:18:09;;;;;;;;;;;;;;;12.13;99.41;100735.75;7356212;19;19919;-64
2023/03/29 05:20:37;;;;;;;;;;;;;;;12.13;99.10;100743.66;7352590;19;20889;-64
2023/03/29 05:23:03;;;;;;;;;;;;;;;12.15;99.65;100746.13;7359505;19;19930;-65
2023/03/29 05:25:30;;;;;;;;;;;;;;;12.14;99.47;100742.66;7357809;19;21603;-65
2023/03/29 05:27:57;;;;;;;;;;;;;;;12.16;99.30;100747.78;7357796;19;20577;-66
2023/03/29 05:30:24;;;;;;;;;;;;;;;12.16;98.96;100737.22;7360819;19;19926;-65
2023/03/29 05:32:51;;;;;;;;;;;;;;;12.14;98.71;100731.31;7359578;19;19943;-65
2023/03/29 05:35:18;;;;;;;;;;;;;;;12.12;98.66;100738.53;7364916;19;20579;-65
2023/03/29 05:37:46;;;;;;;;;;;;;;;12.14;99.40;100747.13;7365499;19;19922;-68
2023/03/29 05:40:12;;;;;;;;;;;;;;;12.14;99.60;100757.69;7361730;19;19922;-65
2023/03/29 05:42:39;;;;;;;;;;;;;;;12.13;99.56;100748.13;7362410;19;19919;-64
2023/03/29 05:45:06;;;;;;;;;;;;;;;12.13;99.33;100741.03;7365724;19;20296;-64
2023/03/29 05:47:33;;;;;;;;;;;;;;;12.13;99.15;100742.84;7360803;19;19927;-65
2023/03/29 05:50:00;;;;;;;;;;;;;;;12.13;99.52;100753.38;7364719;19;20187;-64
2023/03/29 05:52:27;;;;;;;;;;;;;;;12.14;99.39;100739.22;7362799;19;19918;-66
2023/03/29 05:54:55;;;;;;;;;;;;;;;12.14;99.29;100734.72;7365774;19;21452;-65
2023/03/29 05:57:22;;;;;;;;;;;;;;;12.16;99.38;100745.13;7365484;19;19930;-65
2023/03/29 05:59:49;;;;;;;;;;;;;;;12.16;99.74;100753.88;7361604;19;20349;-64
2023/03/29 06:02:16;;;;;;;;;;;;;;;12.13;98.98;100742.84;7361327;19;19923;-64
2023/03/29 06:04:43;;;;;;;;;;;;;;;12.13;99.15;100745.47;7365394;19;20369;-64
2023/03/29 06:07:11;;;;;;;;;;;;;;;12.13;99.00;100751.56;7361296;19;19964;-65
2023/03/29 06:09:38;;;;;;;;;;;;;;;12.15;98.88;100743.47;7361017;19;20470;-64
2023/03/29 06:12:06;;;;;;;;;;;;;;;12.16;98.57;100758.31;7364706;19;19955;-63
2023/03/29 06:14:32;;;;;;;;;;;;;;;12.14;98.30;100755.84;7363497;19;19951;-65
2023/03/29 06:17:00;;;;;;;;;;;;;;;12.15;98.04;100757.50;7360666;19;20784;-65
2023/03/29 06:19:28;;;;;;;;;;;;;;;12.17;98.30;100744.16;7361278;19;19954;-64
2023/03/29 06:21:55;;;;;;;;;;;;;;;12.20;98.13;100741.16;7363617;19;19922;-63
2023/03/29 06:24:23;;;;;;;;;;;;;;;12.20;98.17;100736.72;7363618;19;20318;-65
2023/03/29 06:26:58;;;;;;;;;;;;;;;12.22;97.75;100745.31;7362458;19;20404;-64
2023/03/29 06:29:25;;;;;;;;;;;;;;;12.26;97.91;100754.53;7365247;19;19914;-64
2023/03/29 06:31:52;;;;;;;;;;;;;;;12.28;97.75;100752.56;7359450;19;19933;-63
2023/03/29 06:34:20;;;;;;;;;;;;;;;12.30;97.65;100741.81;7363449;19;19926;-64
2023/03/29 06:36:49;;;;;;;;;;;;;;;12.33;97.31;100744.16;7361601;19;19922;-65
2023/03/29 06:39:16;;;;;;;;;;;;;;;12.39;97.02;100741.66;7364278;19;19951;-65
2023/03/29 06:41:43;;;;;;;;;;;;;;;12.46;97.14;100736.53;7358762;19;19911;-65
2023/03/29 06:44:10;;;;;;;;;;;;;;;12.48;96.44;100731.94;7362811;19;20020;-65
2023/03/29 06:46:37;;;;;;;;;;;;;;;12.49;96.31;100730.13;7357986;19;21067;-64
2023/03/29 06:49:04;;;;;;;;;;;;;;;12.53;96.67;100741.97;7361847;19;19969;-65
2023/03/29 06:51:31;;;;;;;;;;;;;;;12.55;96.64;100745.25;7358737;19;19919;-64
2023/03/29 06:53:58;;;;;;;;;;;;;;;12.57;96.96;100727.44;7362780;19;19940;-65
2023/03/29 06:56:25;;;;;;;;;;;;;;;12.62;97.34;100722.50;7361683;19;19982;-64
2023/03/29 06:58:52;;;;;;;;;;;;;;;12.64;97.06;100709.94;7359413;19;19919;-64
2023/03/29 07:01:20;;;;;;;;;;;;;;;12.64;96.69;100716.06;7356586;19;19919;-63
2023/03/29 07:03:48;;;;;;;;;;;;;;;12.67;97.06;100721.00;7360477;19;20279;-65
2023/03/29 07:06:19;;;;;;;;;;;;;;;12.71;97.17;100710.91;7358958;19;19915;-65
2023/03/29 07:08:51;;;;;;;;;;;;;;;12.73;96.71;100717.69;7360655;19;19915;-65
2023/03/29 07:11:19;;;;;;;;;;;;;;;12.75;96.61;100726.25;7355621;19;19995;-64
2023/03/29 07:13:47;;;;;;;;;;;;;;;12.76;96.52;100732.34;7360834;19;20258;-64
2023/03/29 07:16:15;;;;;;;;;;;;;;;12.79;96.38;100732.84;7359963;19;19925;-64
2023/03/29 07:18:45;;;;;;;;;;;;;;;12.81;96.28;100732.66;7359040;19;19926;-64
2023/03/29 07:21:12;;;;;;;;;;;;;;;12.78;96.10;100736.47;7359407;19;19979;-64
2023/03/29 07:23:39;;;;;;;;;;;;;;;12.80;96.12;100738.94;7362567;19;20414;-66
2023/03/29 07:26:07;;;;;;;;;;;;;;;12.79;96.01;100739.94;7361172;19;19919;-64
2023/03/29 07:28:34;;;;;;;;;;;;;;;12.80;96.15;100746.84;7358848;19;21689;-65
2023/03/29 07:31:05;;;;;;;;;;;;;;;12.82;96.01;100742.22;7358936;19;19930;-64
2023/03/29 07:33:33;;;;;;;;;;;;;;;12.85;96.02;100740.06;7360392;19;19934;-64
2023/03/29 07:36:00;;;;;;;;;;;;;;;12.87;96.19;100729.34;7359013;19;20015;-64
2023/03/29 07:38:27;;;;;;;;;;;;;;;12.95;96.80;100736.44;7358377;19;20395;-63
2023/03/29 07:40:55;;;;;;;;;;;;;;;12.99;95.96;100724.53;7351559;19;19923;-63
2023/03/29 07:43:22;;;;;;;;;;;;;;;13.02;95.64;100725.00;7354883;19;19922;-64
2023/03/29 07:45:59;;;;;;;;;;;;;;;13.03;95.45;100723.19;7358961;19;19938;-63
2023/03/29 07:48:26;;;;;;;;;;;;;;;13.04;94.99;100720.38;7359252;19;19938;-66
2023/03/29 07:50:53;;;;;;;;;;;;;;;13.06;95.12;100714.91;7353270;19;19927;-64
2023/03/29 07:53:19;;;;;;;;;;;;;;;13.10;95.06;100722.34;7356540;19;19925;-64
2023/03/29 07:55:47;;;;;;;;;;;;;;;13.11;94.98;100705.50;7360618;19;19964;-64
2023/03/29 07:58:15;;;;;;;;;;;;;;;13.17;95.30;100704.00;7361586;19;20496;-65
2023/03/29 08:00:42;;;;;;;;;;;;;;;13.19;94.89;100692.28;7356344;19;19943;-64
2023/03/29 08:03:11;;;;;;;;;;;;;;;13.20;94.89;100680.72;7360090;19;19918;-64
2023/03/29 08:05:38;;;;;;;;;;;;;;;13.22;94.82;100688.44;7358198;19;20524;-65
2023/03/29 08:08:08;;;;;;;;;;;;;;;13.24;94.30;100700.50;7361088;19;20371;-64
2023/03/29 08:10:36;;;;;;;;;;;;;;;13.25;94.51;100696.88;7360846;19;19942;-64
2023/03/29 08:13:08;;;;;;;;;;;;;;;13.27;94.60;100686.09;7362160;19;20028;-64
2023/03/29 08:15:37;;;;;;;;;;;;;;;13.30;94.37;100691.06;7359167;19;19929;-65
2023/03/29 08:18:05;;;;;;;;;;;;;;;13.35;94.57;100679.97;7360409;19;20378;-65
2023/03/29 08:20:32;;;;;;;;;;;;;;;13.38;94.29;100695.47;7356992;19;19926;-65
2023/03/29 08:23:00;;;;;;;;;;;;;;;13.36;93.98;100690.34;7360629;19;19930;-66
2023/03/29 08:25:27;;;;;;;;;;;;;;;13.39;94.40;100675.97;7359705;19;19919;-64
2023/03/29 08:27:54;;;;;;;;;;;;;;;13.43;94.65;100682.53;7359245;19;20018;-65
2023/03/29 08:30:21;;;;;;;;;;;;;;;13.44;94.73;100678.91;7359333;19;19914;-63
2023/03/29 08:32:48;;;;;;;;;;;;;;;13.45;94.76;100675.28;7360704;19;20367;-63
2023/03/29 08:35:20;;;;;;;;;;;;;;;13.45;94.93;100668.19;7360488;19;19922;-64
2023/03/29 08:37:46;;;;;;;;;;;;;;;13.44;94.69;100685.03;7362148;19;19929;-65
2023/03/29 08:40:22;;;;;;;;;;;;;;;13.43;94.71;100685.19;7361843;19;19942;-64
2023/03/29 08:43:07;;;;;;;;;;;;;;;13.45;95.42;100683.22;7361666;19;19918;-63
2023/03/29 08:45:35;;;;;;;;;;;;;;;13.48;95.49;100675.75;7359648;19;20483;-64
2023/03/29 08:48:22;;;;;;;;;;;;;;;13.48;95.43;100667.81;7361327;19;19919;-65
2023/03/29 08:50:51;;;;;;;;;;;;;;;13.50;95.50;100657.06;7356017;19;19974;-65
2023/03/29 08:53:21;;;;;;;;;;;;;;;13.51;95.94;100661.38;7357064;19;19923;-65
2023/03/29 08:55:50;;;;;;;;;;;;;;;13.52;95.81;100661.16;7360785;19;19930;-63
2023/03/29 08:58:19;;;;;;;;;;;;;;;13.53;96.57;100662.00;7355361;19;19922;-65
2023/03/29 09:00:48;;;;;;;;;;;;;;;13.53;96.67;100659.34;7347638;19;19911;-64
2023/03/29 09:03:21;;;;;;;;;;;;;;;13.51;96.91;100650.78;7357921;19;20341;-63
2023/03/29 09:06:08;;;;;;;;;;;;;;;13.53;97.43;100633.75;7342081;19;20353;-64
2023/03/29 09:08:46;;;;;;;;;;;;;;;13.52;97.49;100637.38;7355351;19;19966;-65
2023/03/29 09:11:22;;;;;;;;;;;;;;;13.51;97.70;100624.34;7355096;19;19925;-64
2023/03/29 09:14:19;;;;;;;;;;;;;;;13.51;97.74;100627.78;7355853;19;20883;-64
2023/03/29 09:16:51;;;;;;;;;;;;;;;13.55;98.41;100621.19;7350432;19;19930;-65
2023/03/29 09:19:39;;;;;;;;;;;;;;;13.56;98.47;100620.16;7353349;19;20510;-65
2023/03/29 09:22:21;;;;;;;;;;;;;;;13.56;98.33;100622.00;7352189;19;19934;-64
2023/03/29 09:25:03;;;;;;;;;;;;;;;13.55;98.14;100628.28;7353453;19;19941;-64
2023/03/29 09:27:38;;;;;;;;;;;;;;;13.53;98.29;100620.53;7355645;19;19922;-65
2023/03/29 09:30:24;;;;;;;;;;;;;;;13.56;98.38;100614.06;7354360;19;19919;-63
2023/03/29 09:32:52;;;;;;;;;;;;;;;13.56;98.43;100608.78;7350792;19;19918;-64
2023/03/29 09:35:26;;;;;;;;;;;;;;;13.57;98.58;100603.31;7351969;19;19919;-65
2023/03/29 09:37:53;;;;;;;;;;;;;;;13.59;98.85;100613.72;7354259;19;20396;-65
2023/03/29 09:40:23;;;;;;;;;;;;;;;13.59;98.63;100605.78;7352134;19;19910;-65
2023/03/29 09:42:51;;;;;;;;;;;;;;;13.60;98.69;100602.97;7351437;19;19933;-63
2023/03/29 09:45:18;;;;;;;;;;;;;;;13.59;98.71;100600.50;7357533;19;19931;-65
2023/03/29 09:47:56;;;;;;;;;;;;;;;13.57;98.91;100591.91;7348112;19;20459;-64
2023/03/29 09:50:34;;;;;;;;;;;;;;;13.59;99.03;100603.97;7355579;19;19930;-64
2023/03/29 09:53:01;;;;;;;;;;;;;;;13.63;98.67;100591.19;7352839;19;19930;-65
2023/03/29 09:55:29;;;;;;;;;;;;;;;13.67;98.72;100589.84;7351666;19;19948;-65
2023/03/29 09:57:59;;;;;;;;;;;;;;;13.65;98.73;100582.09;7350085;19;19929;-65
2023/03/29 10:00:26;;;;;;;;;;;;;;;13.68;98.69;100581.72;7353432;19;19914;-65
2023/03/29 10:02:55;;;;;;;;;;;;;;;13.73;99.04;100561.84;7349050;19;20392;-65
2023/03/29 10:05:24;;;;;;;;;;;;;;;13.77;98.95;100560.50;7350109;19;19938;-65
2023/03/29 10:07:53;;;;;;;;;;;;;;;13.80;98.84;100558.31;7349022;19;20025;-65
2023/03/29 10:10:21;;;;;;;;;;;;;;;13.84;98.78;100556.13;7352892;19;19930;-65
2023/03/29 10:12:49;;;;;;;;;;;;;;;13.85;98.49;100557.78;7354042;19;20472;-64
2023/03/29 10:15:18;;;;;;;;;;;;;;;13.87;98.75;100551.28;7352257;19;19929;-65
2023/03/29 10:17:59;;;;;;;;;;;;;;;13.91;98.62;100557.91;7359833;19;20011;-65
2023/03/29 10:20:27;;;;;;;;;;;;;;;13.95;98.74;100556.53;7360974;19;20243;-65
2023/03/29 10:22:55;;;;;;;;;;;;;;;14.00;98.63;100546.22;7354326;19;19998;-63
2023/03/29 10:25:34;;;;;;;;;;;;;;;14.07;98.78;100541.81;7360140;19;20132;-63
2023/03/29 10:28:26;;;;;;;;;;;;;;;14.14;98.59;100555.97;7359342;19;19922;-64
2023/03/29 10:31:23;;;;;;;;;;;;;;;14.18;98.53;100553.78;7356610;19;20382;-64
2023/03/29 10:34:01;;;;;;;;;;;;;;;14.22;98.50;100554.25;7360605;19;20040;-65
2023/03/29 10:36:31;;;;;;;;;;;;;;;14.22;98.20;100543.66;7359031;19;19994;-65
2023/03/29 10:39:01;;;;;;;;;;;;;;;14.26;98.50;100550.22;7360838;19;19926;-65
2023/03/29 10:41:32;;;;;;;;;;;;;;;14.27;98.56;100538.63;7357741;19;19929;-64
2023/03/29 10:44:00;;;;;;;;;;;;;;;14.26;98.04;100535.16;7362471;19;19974;-65
2023/03/29 10:46:29;;;;;;;;;;;;;;;14.29;98.22;100531.31;7357327;19;19915;-65
2023/03/29 10:49:09;;;;;;;;;;;;;;;14.27;98.18;100528.06;7359532;19;21646;-65
2023/03/29 10:51:43;;;;;;;;;;;;;;;14.26;98.17;100521.13;7355817;19;19926;-64
2023/03/29 10:54:19;;;;;;;;;;;;;;;14.28;98.66;100529.66;7359512;19;19927;-63
2023/03/29 10:57:14;;;;;;;;;;;;;;;14.32;98.88;100523.03;7356754;19;19961;-66
2023/03/29 10:59:58;;;;;;;;;;;;;;;14.34;99.11;100519.19;7356378;19;20008;-65
2023/03/29 11:02:48;;;;;;;;;;;;;;;14.36;99.20;100511.91;7352927;19;19926;-64
2023/03/29 11:05:24;;;;;;;;;;;;;;;14.36;99.52;100509.28;7358540;19;19923;-64
2023/03/29 11:07:51;;;;;;;;;;;;;;;14.38;99.67;100514.34;7350383;19;20277;-64
2023/03/29 11:10:37;;;;;;;;;;;;;;;14.39;99.71;100502.78;7358445;19;20236;-65
2023/03/29 11:13:04;;;;;;;;;;;;;;;14.38;99.97;100509.06;7345717;19;19923;-66
2023/03/29 11:15:37;;;;;;;;;;;;;;;14.37;100.00;100496.84;7355095;19;20546;-66
2023/03/29 11:18:04;;;;;;;;;;;;;;;14.35;100.00;100482.94;7348516;19;19943;-64
2023/03/29 11:20:50;;;;;;;;;;;;;;;14.35;100.00;100473.19;7352101;19;19927;-67
2023/03/29 11:23:29;;;;;;;;;;;;;;;14.36;100.00;100477.50;7354118;19;21049;-64
2023/03/29 11:25:56;;;;;;;;;;;;;;;14.39;100.00;100481.59;7354289;19;20265;-66
2023/03/29 11:28:36;;;;;;;;;;;;;;;14.41;100.00;100476.94;7365172;19;20405;-64
2023/03/29 11:31:08;;;;;;;;;;;;;;;14.44;100.00;100481.84;7359151;19;20050;-64
2023/03/29 11:33:54;;;;;;;;;;;;;;;14.42;100.00;100476.78;7362109;19;19915;-65
2023/03/29 11:36:23;;;;;;;;;;;;;;;14.46;100.00;100487.78;7359412;19;19959;-65
2023/03/29 11:39:03;;;;;;;;;;;;;;;14.46;100.00;100475.38;7362056;19;19930;-65
2023/03/29 11:41:33;;;;;;;;;;;;;;;14.49;100.00;100469.69;7356039;19;19911;-63
2023/03/29 11:44:08;;;;;;;;;;;;;;;14.54;100.00;100450.59;7360611;19;19930;-65
2023/03/29 11:46:38;;;;;;;;;;;;;;;14.57;100.00;100444.94;7355641;19;19914;-65
2023/03/29 11:49:05;;;;;;;;;;;;;;;14.62;100.00;100453.16;7361822;19;19930;-64
2023/03/29 11:51:36;;;;;;;;;;;;;;;14.66;100.00;100457.06;7360245;19;19926;-64
2023/03/29 11:54:19;;;;;;;;;;;;;;;14.71;100.00;100457.31;7359503;19;19918;-64
2023/03/29 11:56:51;;;;;;;;;;;;;;;14.75;100.00;100463.88;7358823;19;20265;-64
2023/03/29 11:59:26;;;;;;;;;;;;;;;14.79;100.00;100449.22;7357448;19;19922;-64
2023/03/29 12:02:01;;;;;;;;;;;;;;;14.86;100.00;100451.94;7355253;19;19930;-64
2023/03/29 12:04:43;;;;;;;;;;;;;;;14.90;100.00;100458.50;7359476;19;19922;-64
2023/03/29 12:07:16;;;;;;;;;;;;;;;14.96;100.00;100453.25;7359134;19;20250;-64
2023/03/29 12:09:55;;;;;;;;;;;;;;;15.02;100.00;100445.56;7357003;19;19923;-65
2023/03/29 12:12:25;;;;;;;;;;;;;;;15.05;99.78;100439.88;7354304;19;19919;-64
2023/03/29 12:15:09;;;;;;;;;;;;;;;15.11;99.37;100433.81;7350892;19;20457;-64
2023/03/29 12:17:40;;;;;;;;;;;;;;;15.18;99.24;100442.66;7352273;19;19929;-64
2023/03/29 12:20:28;;;;;;;;;;;;;;;15.22;98.79;100455.31;7357279;19;19923;-64
2023/03/29 12:22:58;;;;;;;;;;;;;;;15.29;98.24;100458.00;7346209;19;19937;-65
2023/03/29 12:25:29;;;;;;;;;;;;;;;15.33;97.70;100456.63;7349620;19;20357;-64
2023/03/29 12:28:18;;;;;;;;;;;;;;;15.35;96.71;100459.88;7351315;19;19975;-65
2023/03/29 12:30:54;;;;;;;;;;;;;;;15.31;96.32;100448.84;7353137;19;20642;-64
2023/03/29 12:33:21;;;;;;;;;;;;;;;15.33;96.04;100454.78;7350689;19;19938;-64
2023/03/29 12:35:57;;;;;;;;;;;;;;;15.31;95.77;100456.00;7355979;19;19950;-63
2023/03/29 12:38:27;;;;;;;;;;;;;;;15.33;95.26;100446.03;7354189;19;19930;-64
2023/03/29 12:41:00;;;;;;;;;;;;;;;15.37;95.33;100442.78;7358112;19;20481;-64
2023/03/29 12:43:42;;;;;;;;;;;;;;;15.49;94.79;100427.13;7356988;19;20394;-65
2023/03/29 12:46:13;;;;;;;;;;;;;;;15.66;94.07;100423.19;7351706;19;19919;-64
2023/03/29 12:48:41;;;;;;;;;;;;;;;15.80;92.80;100402.84;7352016;19;19927;-64
2023/03/29 12:51:12;;;;;;;;;;;;;;;15.86;91.01;100398.59;7352150;19;19930;-64